Time;durP1;ratioP1;P1;durP2;ratioP2;P2;SDS_P1;SDS_P2;PMS_P1;PMS_P2;Temp;Humidity;BMP_temperature;BMP_pressure;BME280_temperature;BME280_humidity;BME280_pressure;Samples;Min_cycle;Max_cycle;Signal;HPM_P1;HPM_P2
2023/07/09 00:00:22;;;;;;;8.65;4.97;;;24.50;43.50;;;;;;6248725;22;20002;-71
2023/07/09 00:03:02;;;;;;;10.55;4.95;;;24.50;43.70;;;;;;6277210;22;20010;-70
2023/07/09 00:05:33;;;;;;;6.57;4.38;;;24.40;43.90;;;;;;6277342;22;19988;-71
2023/07/09 00:08:34;;;;;;;9.43;4.88;;;24.40;44.50;;;;;;6277092;22;19996;-71
2023/07/09 00:11:05;;;;;;;6.90;4.88;;;24.40;44.70;;;;;;6259834;22;20070;-71
2023/07/09 00:13:50;;;;;;;10.43;5.25;;;24.40;45.20;;;;;;6277072;22;19990;-70
2023/07/09 00:16:30;;;;;;;5.72;4.30;;;24.30;44.80;;;;;;6276725;22;19995;-71
2023/07/09 00:19:04;;;;;;;6.63;4.63;;;24.30;44.90;;;;;;6277090;22;20000;-71
2023/07/09 00:21:39;;;;;;;7.15;5.57;;;24.30;44.60;;;;;;6277134;22;20021;-71
2023/07/09 00:24:17;;;;;;;7.32;5.03;;;24.20;45.30;;;;;;6276984;22;20027;-70
2023/07/09 00:26:57;;;;;;;6.32;4.97;;;24.20;44.90;;;;;;6276655;22;19998;-72
2023/07/09 00:29:46;;;;;;;6.93;4.65;;;24.20;45.20;;;;;;6277104;22;20000;-71
2023/07/09 00:32:34;;;;;;;7.30;4.97;;;24.10;45.10;;;;;;6276731;22;20027;-70
2023/07/09 00:35:23;;;;;;;7.93;4.20;;;24.10;45.20;;;;;;6248459;22;20410;-71
2023/07/09 00:38:01;;;;;;;8.63;4.93;;;24.10;45.30;;;;;;6249183;22;20000;-71
2023/07/09 00:40:43;;;;;;;7.88;4.45;;;24.10;45.80;;;;;;6276607;22;20023;-70
2023/07/09 00:43:16;;;;;;;8.57;4.60;;;24.00;45.40;;;;;;6249671;22;19996;-70
2023/07/09 00:46:20;;;;;;;7.53;4.65;;;24.00;45.60;;;;;;6276829;22;19992;-70
2023/07/09 00:48:57;;;;;;;6.38;4.75;;;24.00;45.40;;;;;;6276342;22;20003;-71
2023/07/09 00:51:44;;;;;;;12.45;4.75;;;24.00;45.80;;;;;;6248783;22;20004;-71
2023/07/09 00:54:31;;;;;;;7.70;5.38;;;23.90;46.20;;;;;;6275379;22;20415;-70
2023/07/09 00:57:19;;;;;;;5.03;4.50;;;23.90;46.00;;;;;;6276495;22;19999;-71
2023/07/09 01:00:03;;;;;;;7.45;5.32;;;23.90;46.40;;;;;;6276374;22;19995;-71
2023/07/09 01:02:33;;;;;;;6.10;4.40;;;23.90;46.40;;;;;;6276110;22;20316;-71
2023/07/09 01:05:11;;;;;;;5.70;4.43;;;23.90;47.20;;;;;;6276639;22;19998;-70
2023/07/09 01:07:40;;;;;;;6.95;5.32;;;23.80;47.10;;;;;;6276359;22;20091;-71
2023/07/09 01:10:18;;;;;;;7.50;5.13;;;23.90;48.50;;;;;;6276329;22;20087;-71
2023/07/09 01:13:00;;;;;;;9.95;4.63;;;23.80;47.90;;;;;;6276740;22;20007;-71
2023/07/09 01:15:41;;;;;;;9.75;4.97;;;23.80;47.70;;;;;;6276769;22;19988;-70
2023/07/09 01:18:14;;;;;;;10.02;5.18;;;23.90;47.40;;;;;;6248338;22;20000;-71
2023/07/09 01:20:56;;;;;;;6.65;4.85;;;23.90;47.50;;;;;;6276226;22;20420;-71
2023/07/09 01:23:30;;;;;;;6.55;4.72;;;23.90;47.60;;;;;;6249513;22;20083;-71
2023/07/09 01:26:02;;;;;;;8.50;4.70;;;23.90;47.20;;;;;;6276312;22;20400;-71
2023/07/09 01:28:44;;;;;;;8.68;4.43;;;24.00;47.30;;;;;;6277060;22;19995;-71
2023/07/09 01:31:15;;;;;;;5.35;3.85;;;24.00;47.40;;;;;;6276520;22;20012;-71
2023/07/09 01:33:49;;;;;;;9.18;5.35;;;24.00;47.30;;;;;;6276504;22;19996;-72
2023/07/09 01:36:34;;;;;;;6.90;4.22;;;24.10;47.20;;;;;;6276472;22;20020;-73
2023/07/09 01:39:19;;;;;;;11.55;4.93;;;24.20;47.20;;;;;;6276392;22;19992;-71
2023/07/09 01:42:01;;;;;;;7.15;4.78;;;24.20;47.30;;;;;;6276189;22;20034;-71
2023/07/09 01:44:46;;;;;;;6.20;4.32;;;24.20;47.40;;;;;;6276334;22;20019;-70
2023/07/09 01:47:23;;;;;;;5.93;4.10;;;24.20;47.30;;;;;;6276449;22;19996;-71
2023/07/09 01:50:03;;;;;;;7.63;4.22;;;24.30;48.00;;;;;;6249149;22;20023;-71
2023/07/09 01:52:43;;;;;;;5.78;4.30;;;24.30;47.50;;;;;;6275852;22;20000;-71
2023/07/09 01:55:16;;;;;;;9.90;4.63;;;24.30;47.50;;;;;;6275940;22;19999;-72
2023/07/09 01:57:58;;;;;;;7.63;5.30;;;24.30;47.50;;;;;;6275897;22;19991;-72
2023/07/09 02:00:34;;;;;;;6.78;4.88;;;24.30;47.40;;;;;;6276164;22;20039;-71
2023/07/09 02:03:19;;;;;;;5.75;4.57;;;24.30;47.80;;;;;;6276196;22;20000;-70
2023/07/09 02:06:02;;;;;;;6.10;4.18;;;24.30;47.40;;;;;;6275790;22;20011;-71
2023/07/09 02:08:47;;;;;;;7.10;4.88;;;24.30;47.30;;;;;;6275655;22;19995;-71
2023/07/09 02:11:32;;;;;;;7.88;4.22;;;24.30;47.50;;;;;;6248796;22;20015;-71
2023/07/09 02:14:05;;;;;;;8.05;5.10;;;24.30;47.40;;;;;;6275868;22;19998;-71
2023/07/09 02:16:45;;;;;;;;;;;24.30;47.30;;;;;;6248305;22;19999;-71
2023/07/09 02:19:30;;;;;;;8.80;4.70;;;24.40;46.70;;;;;;6275901;22;19895;-70
2023/07/09 02:22:08;;;;;;;8.13;4.10;;;24.40;47.10;;;;;;6247370;22;20321;-70
2023/07/09 02:24:42;;;;;;;6.07;4.35;;;24.30;47.20;;;;;;6275072;22;20300;-71
2023/07/09 02:27:13;;;;;;;7.97;5.00;;;24.30;47.20;;;;;;6275808;22;20334;-70
2023/07/09 02:29:55;;;;;;;8.45;4.28;;;24.30;47.00;;;;;;6275858;22;19995;-70
2023/07/09 02:32:32;;;;;;;7.75;4.88;;;24.30;46.90;;;;;;6247376;22;20011;-72
2023/07/09 02:35:08;;;;;;;7.50;4.65;;;24.20;47.20;;;;;;6275486;22;19992;-70
2023/07/09 02:37:50;;;;;;;6.75;4.80;;;24.20;47.50;;;;;;6275770;22;19991;-70
2023/07/09 02:40:26;;;;;;;4.97;4.10;;;24.20;47.60;;;;;;6275891;22;20038;-70
2023/07/09 02:43:08;;;;;;;8.23;5.03;;;24.20;47.30;;;;;;6248507;22;20004;-70
2023/07/09 02:45:53;;;;;;;8.88;4.78;;;24.20;47.40;;;;;;6248444;22;19995;-70
2023/07/09 02:48:32;;;;;;;4.82;4.32;;;24.20;47.40;;;;;;6275207;22;20408;-71
2023/07/09 02:51:05;;;;;;;7.30;4.90;;;24.20;47.50;;;;;;6275876;22;20029;-71
2023/07/09 02:53:36;;;;;;;7.03;4.30;;;24.20;48.10;;;;;;6247468;22;20047;-71
2023/07/09 02:56:15;;;;;;;5.63;4.30;;;24.20;47.30;;;;;;6275937;22;20070;-71
2023/07/09 02:59:01;;;;;;;7.30;4.72;;;24.20;47.10;;;;;;6275297;22;19991;-70
2023/07/09 03:01:46;;;;;;;9.63;4.50;;;24.10;47.30;;;;;;6275370;22;20018;-71
2023/07/09 03:04:28;;;;;;;6.45;4.88;;;24.10;47.40;;;;;;6275588;22;19995;-71
2023/07/09 03:07:10;;;;;;;7.78;4.85;;;24.00;47.90;;;;;;6275953;22;19999;-73
2023/07/09 03:09:54;;;;;;;7.43;4.60;;;24.00;47.90;;;;;;6275175;22;20002;-71
2023/07/09 03:12:34;;;;;;;6.35;4.80;;;23.90;47.50;;;;;;6247076;22;20087;-71
2023/07/09 03:15:11;;;;;;;7.20;4.88;;;23.80;47.80;;;;;;6275205;22;20307;-71
2023/07/09 03:17:45;;;;;;;9.70;4.47;;;23.70;47.40;;;;;;6275277;22;20311;-70
2023/07/09 03:20:14;;;;;;;10.40;4.70;;;23.70;47.60;;;;;;6275450;22;20002;-70
2023/07/09 03:22:58;;;;;;;5.10;4.22;;;23.60;47.80;;;;;;6275078;22;20000;-71
2023/07/09 03:25:30;;;;;;;9.50;4.90;;;23.50;47.70;;;;;;6248348;22;19992;-70
2023/07/09 03:28:15;;;;;;;6.32;4.63;;;23.40;48.00;;;;;;6248266;22;20403;-71
2023/07/09 03:30:45;;;;;;;7.18;4.55;;;23.40;48.60;;;;;;6275274;22;20002;-70
2023/07/09 03:33:17;;;;;;;6.15;4.57;;;23.30;47.90;;;;;;6250269;22;20012;-71
2023/07/09 03:35:54;;;;;;;8.63;4.30;;;23.30;48.20;;;;;;6276920;22;20396;-70
2023/07/09 03:38:36;;;;;;;6.20;4.82;;;23.30;48.50;;;;;;6252227;22;19992;-71
2023/07/09 03:41:15;;;;;;;7.82;4.88;;;23.30;48.70;;;;;;6277109;22;20010;-70
2023/07/09 03:43:56;;;;;;;6.55;4.28;;;23.20;48.70;;;;;;6277062;22;20023;-70
2023/07/09 03:46:27;;;;;;;6.85;4.20;;;23.20;48.70;;;;;;6277130;22;19988;-70
2023/07/09 03:49:06;;;;;;;5.75;4.53;;;23.20;49.00;;;;;;6276985;22;20026;-71
2023/07/09 03:51:47;;;;;;;6.97;5.00;;;23.20;49.10;;;;;;6276899;22;20062;-70
2023/07/09 03:54:32;;;;;;;6.78;5.07;;;23.20;50.10;;;;;;6248960;22;19996;-71
2023/07/09 03:57:15;;;;;;;6.85;4.97;;;23.20;50.30;;;;;;6248911;22;20004;-71
2023/07/09 03:59:54;;;;;;;6.95;5.05;;;23.10;49.90;;;;;;6250158;22;19996;-71
2023/07/09 04:02:32;;;;;;;6.55;4.70;;;23.10;50.30;;;;;;6277071;22;20046;-71
2023/07/09 04:05:14;;;;;;;5.93;4.72;;;23.10;49.70;;;;;;6250133;22;19992;-71
2023/07/09 04:07:50;;;;;;;6.93;5.05;;;23.10;49.60;;;;;;6248871;22;20087;-71
2023/07/09 04:10:27;;;;;;;14.45;6.20;;;23.10;49.80;;;;;;6276931;22;19991;-70
2023/07/09 04:13:05;;;;;;;8.55;5.03;;;23.10;50.00;;;;;;6277157;22;20003;-71
2023/07/09 04:15:50;;;;;;;7.88;5.28;;;23.10;50.40;;;;;;6250267;22;19999;-71
2023/07/09 04:18:32;;;;;;;6.90;4.38;;;23.10;50.40;;;;;;6249952;22;20011;-71
2023/07/09 04:21:11;;;;;;;7.03;4.75;;;23.10;50.20;;;;;;6276848;22;20372;-71
2023/07/09 04:23:53;;;;;;;7.03;4.47;;;23.20;50.40;;;;;;6276801;22;19988;-71
2023/07/09 04:26:24;;;;;;;9.73;4.72;;;23.20;50.20;;;;;;6277088;22;20010;-72
2023/07/09 04:29:06;;;;;;;5.63;4.60;;;23.30;50.20;;;;;;6276969;22;19996;-70
2023/07/09 04:31:40;;;;;;;10.43;4.40;;;23.30;50.10;;;;;;6276728;22;20071;-71
2023/07/09 04:34:16;;;;;;;;;;;23.30;50.00;;;;;;6277415;22;20304;-71
2023/07/09 04:36:53;;;;;;;6.43;4.50;;;23.40;49.40;;;;;;6276881;22;19915;-70
2023/07/09 04:39:32;;;;;;;6.38;4.82;;;23.40;49.20;;;;;;6249601;22;20018;-70
2023/07/09 04:42:10;;;;;;;8.45;5.18;;;23.50;49.20;;;;;;6276448;22;20000;-71
2023/07/09 04:44:44;;;;;;;5.72;4.60;;;23.50;49.20;;;;;;6248732;22;20083;-71
2023/07/09 04:47:15;;;;;;;;;;;23.50;49.10;;;;;;6277098;22;20031;-72
2023/07/09 04:49:51;;;;;;;5.65;4.25;;;23.60;48.80;;;;;;6276445;22;19895;-71
2023/07/09 04:52:33;;;;;;;12.52;4.72;;;23.70;48.70;;;;;;6276794;22;20121;-70
2023/07/09 04:55:05;;;;;;;7.05;4.72;;;23.70;48.70;;;;;;6277059;22;19995;-69
2023/07/09 04:57:36;;;;;;;15.70;4.40;;;23.70;48.50;;;;;;6277010;22;20031;-70
2023/07/09 05:00:16;;;;;;;15.98;5.68;;;23.80;48.50;;;;;;6277206;22;19995;-70
2023/07/09 05:02:47;;;;;;;11.13;5.18;;;23.80;48.60;;;;;;6276872;22;20011;-70
2023/07/09 05:05:26;;;;;;;20.52;5.70;;;23.80;48.30;;;;;;6276968;22;19992;-71
2023/07/09 05:08:02;;;;;;;22.88;5.28;;;23.90;48.30;;;;;;6277006;22;20000;-70
2023/07/09 05:10:33;;;;;;;12.25;5.15;;;23.90;48.30;;;;;;6276454;22;20007;-71
2023/07/09 05:13:15;;;;;;;14.02;5.57;;;24.00;48.20;;;;;;6249376;22;20008;-71
2023/07/09 05:16:01;;;;;;;9.80;4.90;;;24.00;48.20;;;;;;6276891;22;20023;-71
2023/07/09 05:18:45;;;;;;;18.98;6.07;;;24.00;48.00;;;;;;6276316;22;20019;-70
2023/07/09 05:21:16;;;;;;;15.80;5.70;;;24.10;47.90;;;;;;6276384;22;19992;-70
2023/07/09 05:24:06;;;;;;;26.50;6.45;;;24.10;47.80;;;;;;6277110;22;20280;-73
2023/07/09 05:26:49;;;;;;;46.28;7.85;;;24.20;47.90;;;;;;6248313;22;20273;-70
2023/07/09 05:29:23;;;;;;;42.78;7.13;;;24.20;47.80;;;;;;6276319;22;20079;-71
2023/07/09 05:32:08;;;;;;;30.08;7.35;;;24.30;47.70;;;;;;6249105;22;20007;-71
2023/07/09 05:34:44;;;;;;;11.75;6.10;;;24.40;47.60;;;;;;6247716;22;19996;-70
2023/07/09 05:37:18;;;;;;;25.85;6.18;;;24.40;47.60;;;;;;6276568;22;19992;-70
2023/07/09 05:40:03;;;;;;;34.55;7.30;;;24.50;47.60;;;;;;6275949;22;20018;-71
2023/07/09 05:42:34;;;;;;;16.48;6.80;;;24.50;47.60;;;;;;6276171;22;20145;-71
2023/07/09 05:45:11;;;;;;;22.10;6.10;;;24.60;47.50;;;;;;6276362;22;19995;-70
2023/07/09 05:47:37;;;;;;;15.73;5.38;;;24.60;47.40;;;;;;6276054;22;20011;-69
2023/07/09 05:50:04;;;;;;;16.85;5.97;;;24.70;47.30;;;;;;6276311;22;20042;-72
2023/07/09 05:52:30;;;;;;;12.13;6.07;;;24.80;47.30;;;;;;6249177;22;20030;-74
2023/07/09 05:54:56;;;;;;;14.45;5.13;;;24.80;47.20;;;;;;6249681;22;20424;-75
2023/07/09 05:57:22;;;;;;;16.80;6.38;;;24.90;47.10;;;;;;6276541;22;20439;-70
2023/07/09 05:59:48;;;;;;;14.82;5.75;;;24.90;46.90;;;;;;6276341;22;19992;-70
2023/07/09 06:02:16;;;;;;;12.38;5.13;;;25.00;47.20;;;;;;6276276;22;20026;-74
2023/07/09 06:04:42;;;;;;;9.60;5.57;;;25.00;47.30;;;;;;6249366;22;20487;-73
2023/07/09 06:07:11;;;;;;;25.27;10.90;;;25.10;47.10;;;;;;6276657;22;20027;-73
2023/07/09 06:09:37;;;;;;;19.80;9.32;;;25.20;47.20;;;;;;6276598;22;20011;-72
2023/07/09 06:12:06;;;;;;;17.02;7.38;;;25.30;47.10;;;;;;6276148;22;20006;-72
2023/07/09 06:14:33;;;;;;;19.98;11.30;;;25.30;47.00;;;;;;6249138;22;20003;-69
2023/07/09 06:17:00;;;;;;;15.65;7.60;;;25.40;46.90;;;;;;6276245;22;20296;-70
2023/07/09 06:19:25;;;;;;;17.92;7.78;;;25.50;46.90;;;;;;6275780;22;20021;-71
2023/07/09 06:21:51;;;;;;;31.88;7.97;;;25.60;46.80;;;;;;6275400;22;20066;-70
2023/07/09 06:24:17;;;;;;;19.13;6.93;;;25.70;46.80;;;;;;6276074;22;20303;-71
2023/07/09 06:26:43;;;;;;;16.77;6.15;;;25.70;46.70;;;;;;6249001;22;20045;-72
2023/07/09 06:29:09;;;;;;;17.67;6.00;;;25.80;46.60;;;;;;6248838;22;20023;-73
2023/07/09 06:31:36;;;;;;;15.07;6.60;;;25.80;46.30;;;;;;6275472;22;20046;-68
2023/07/09 06:34:04;;;;;;;11.32;6.78;;;25.90;46.30;;;;;;6275426;22;19996;-68
2023/07/09 06:36:45;;;;;;;12.80;6.75;;;26.00;46.30;;;;;;6275412;22;20030;-68
2023/07/09 06:39:27;;;;;;;10.55;6.22;;;26.00;46.10;;;;;;6273971;22;20000;-69
2023/07/09 06:42:13;;;;;;;19.00;7.38;;;26.20;46.00;;;;;;6275375;22;20436;-68
2023/07/09 06:44:54;;;;;;;13.95;6.88;;;26.20;45.70;;;;;;6275187;22;20320;-68
2023/07/09 06:47:36;;;;;;;12.90;7.63;;;26.30;45.50;;;;;;6275309;22;20030;-69
2023/07/09 06:50:24;;;;;;;17.40;7.95;;;26.40;45.40;;;;;;6275609;22;20019;-68
2023/07/09 06:53:06;;;;;;;13.63;7.20;;;26.40;45.20;;;;;;6275462;22;20004;-68
2023/07/09 06:55:40;;;;;;;14.82;7.07;;;26.50;44.90;;;;;;6246365;22;20452;-68
2023/07/09 06:58:19;;;;;;;18.40;7.13;;;26.60;44.90;;;;;;6248082;22;20000;-68
2023/07/09 07:01:03;;;;;;;19.40;8.30;;;26.60;44.70;;;;;;6275148;22;20007;-68
2023/07/09 07:03:40;;;;;;;11.02;7.20;;;26.70;44.70;;;;;;6275671;22;20008;-68
2023/07/09 07:06:22;;;;;;;11.68;7.28;;;26.80;44.50;;;;;;6247834;22;20003;-68
2023/07/09 07:08:58;;;;;;;16.48;7.03;;;26.80;44.10;;;;;;6275416;22;20004;-69
2023/07/09 07:11:43;;;;;;;16.23;7.80;;;26.90;43.90;;;;;;6275136;22;20192;-69
2023/07/09 07:14:10;;;;;;;15.65;7.85;;;27.00;43.80;;;;;;6274930;22;19996;-69
2023/07/09 07:16:49;;;;;;;14.63;7.63;;;27.00;43.70;;;;;;6275096;22;20000;-68
2023/07/09 07:19:31;;;;;;;14.00;7.95;;;27.10;43.60;;;;;;6275048;22;20058;-69
2023/07/09 07:22:02;;;;;;;15.88;8.27;;;27.10;43.50;;;;;;6275057;22;20007;-69
2023/07/09 07:24:47;;;;;;;18.45;9.75;;;27.20;43.30;;;;;;6248015;22;20050;-69
2023/07/09 07:27:32;;;;;;;21.25;8.43;;;27.30;43.10;;;;;;6274885;22;20045;-70
2023/07/09 07:30:02;;;;;;;17.67;8.88;;;27.40;43.40;;;;;;6274997;22;20377;-68
2023/07/09 07:32:47;;;;;;;16.90;8.43;;;27.40;43.30;;;;;;6248088;22;20011;-68
2023/07/09 07:35:27;;;;;;;15.93;8.15;;;27.50;43.10;;;;;;6274918;22;20495;-68
2023/07/09 07:38:08;;;;;;;14.75;7.20;;;27.60;42.70;;;;;;6247940;22;20077;-68
2023/07/09 07:40:44;;;;;;;16.55;6.30;;;27.70;41.30;;;;;;6247956;22;20006;-69
2023/07/09 07:43:26;;;;;;;14.57;5.93;;;27.70;41.70;;;;;;6274639;22;20449;-68
2023/07/09 07:46:00;;;;;;;13.40;6.53;;;27.80;41.70;;;;;;6275180;22;20006;-68
2023/07/09 07:48:36;;;;;;;17.88;7.25;;;27.80;41.90;;;;;;6275301;22;20034;-69
2023/07/09 07:51:21;;;;;;;13.35;6.55;;;27.90;41.80;;;;;;6275423;22;20069;-68
2023/07/09 07:53:48;;;;;;;9.40;6.03;;;27.90;41.30;;;;;;6247731;22;20057;-69
2023/07/09 07:56:14;;;;;;;9.73;5.88;;;28.00;41.50;;;;;;6275470;22;19992;-69
2023/07/09 07:58:40;;;;;;;17.10;6.40;;;28.10;41.50;;;;;;6275568;22;20018;-68
2023/07/09 08:01:11;;;;;;;8.85;6.05;;;28.20;41.10;;;;;;6275369;22;20003;-71
2023/07/09 08:03:45;;;;;;;10.10;5.53;;;28.20;41.00;;;;;;6275140;22;20018;-69
2023/07/09 08:06:11;;;;;;;14.05;6.13;;;28.30;41.20;;;;;;6275398;22;20016;-70
2023/07/09 08:08:37;;;;;;;7.65;5.47;;;28.40;41.10;;;;;;6248403;22;20087;-71
2023/07/09 08:11:09;;;;;;;7.35;5.15;;;28.40;41.00;;;;;;6248518;22;20428;-71
2023/07/09 08:13:36;;;;;;;11.00;5.80;;;28.50;40.80;;;;;;6248281;22;20007;-71
2023/07/09 08:16:02;;;;;;;12.10;5.82;;;28.50;40.60;;;;;;6248336;22;20004;-71
2023/07/09 08:18:28;;;;;;;13.75;5.88;;;28.60;40.40;;;;;;6248930;22;19996;-72
2023/07/09 08:20:54;;;;;;;11.55;5.85;;;28.60;40.40;;;;;;6249861;22;20011;-72
2023/07/09 08:23:19;;;;;;;7.15;5.28;;;28.70;40.20;;;;;;6277664;22;19995;-71
2023/07/09 08:26:00;;;;;;;11.68;5.57;;;28.80;39.90;;;;;;6277232;22;20312;-72
2023/07/09 08:28:26;;;;;;;21.67;5.93;;;28.80;39.80;;;;;;6277204;22;20303;-71
2023/07/09 08:30:53;;;;;;;8.63;5.82;;;28.90;40.00;;;;;;6277147;22;20003;-73
2023/07/09 08:33:19;;;;;;;7.85;5.88;;;28.90;39.60;;;;;;6276870;22;20007;-71
2023/07/09 08:35:45;;;;;;;11.90;6.47;;;29.00;40.10;;;;;;6276861;22;20044;-69
2023/07/09 08:38:27;;;;;;;9.43;5.80;;;29.00;39.40;;;;;;6277080;22;20023;-72
2023/07/09 08:41:08;;;;;;;7.60;5.20;;;29.10;39.20;;;;;;6276810;22;20129;-72
2023/07/09 08:43:55;;;;;;;17.25;5.97;;;29.20;39.00;;;;;;6276580;22;19992;-72
2023/07/09 08:46:53;;;;;;;9.10;5.72;;;29.20;39.00;;;;;;6249812;22;19999;-72
2023/07/09 08:49:50;;;;;;;8.05;6.03;;;29.30;39.10;;;;;;6199356;22;20022;-72
2023/07/09 08:52:35;;;;;;;10.63;6.07;;;29.40;39.00;;;;;;6262187;22;20445;-72
2023/07/09 08:57:49;;;;;;;11.38;5.70;;;29.50;38.80;;;;;;6240292;23;20020;-71
2023/07/09 09:00:55;;;;;;;9.02;5.57;;;29.60;38.80;;;;;;6220682;23;20083;-69
2023/07/09 09:03:50;;;;;;;12.48;6.43;;;29.60;38.40;;;;;;6219812;23;20006;-69
2023/07/09 09:06:31;;;;;;;9.50;6.60;;;29.70;38.40;;;;;;6247409;23;20015;-69
2023/07/09 09:09:35;;;;;;;14.05;6.85;;;29.80;38.20;;;;;;6247883;23;19992;-71
2023/07/09 09:12:38;;;;;;;14.20;7.88;;;29.80;38.20;;;;;;6217335;23;20379;-71
2023/07/09 09:15:44;;;;;;;9.48;5.65;;;29.90;38.40;;;;;;6247802;23;20054;-70
2023/07/09 09:18:25;;;;;;;15.07;7.45;;;30.00;38.00;;;;;;6246620;23;20000;-70
2023/07/09 09:21:10;;;;;;;13.20;7.18;;;30.10;37.70;;;;;;6247927;23;20027;-72
2023/07/09 09:24:03;;;;;;;13.10;6.15;;;30.10;37.80;;;;;;6246973;23;19996;-71
2023/07/09 09:26:41;;;;;;;7.80;5.65;;;30.20;37.60;;;;;;6247159;23;20023;-72
2023/07/09 09:29:17;;;;;;;18.77;9.55;;;30.30;37.20;;;;;;6246357;23;19996;-72
2023/07/09 09:31:51;;;;;;;15.00;8.95;;;30.40;37.30;;;;;;6220550;23;20000;-73
2023/07/09 09:34:35;;;;;;;18.95;11.10;;;30.40;37.20;;;;;;6247530;23;20024;-71
2023/07/09 09:37:09;;;;;;;;;;;30.40;36.80;;;;;;6247213;23;19988;-72
2023/07/09 09:39:38;;;;;;;20.35;12.25;;;30.60;37.90;;;;;;6246498;23;19901;-71
2023/07/09 09:42:11;;;;;;;21.77;12.98;;;30.60;36.60;;;;;;6246353;23;20046;-72
2023/07/09 09:44:46;;;;;;;28.58;15.35;;;30.70;37.10;;;;;;6246703;23;20003;-72
2023/07/09 09:47:17;;;;;;;27.60;16.67;;;30.70;37.60;;;;;;6246557;23;20038;-72
2023/07/09 09:49:44;;;;;;;16.55;12.45;;;30.80;36.90;;;;;;6246848;23;20000;-71
2023/07/09 09:52:15;;;;;;;21.88;14.02;;;30.90;36.40;;;;;;6246552;23;20004;-71
2023/07/09 09:54:55;;;;;;;15.55;10.27;;;30.90;36.20;;;;;;6246480;23;20022;-72
2023/07/09 09:57:24;;;;;;;23.65;16.65;;;31.00;36.00;;;;;;6246075;23;20459;-72
2023/07/09 10:00:02;;;;;;;28.95;18.90;;;31.10;36.00;;;;;;6246683;23;20416;-70
2023/07/09 10:02:27;;;;;;;12.88;9.10;;;31.20;36.10;;;;;;6248416;23;19999;-71
2023/07/09 10:04:53;;;;;;;12.10;8.98;;;31.20;35.70;;;;;;6246874;23;20300;-72
2023/07/09 10:07:35;;;;;;;22.52;13.43;;;31.30;35.80;;;;;;6246532;23;20050;-72
2023/07/09 10:10:12;;;;;;;19.98;13.13;;;31.40;36.10;;;;;;6220450;23;20416;-72
2023/07/09 10:12:49;;;;;;;20.77;14.18;;;31.50;35.90;;;;;;6220336;23;20015;-70
2023/07/09 10:15:34;;;;;;;16.52;12.23;;;31.60;36.00;;;;;;6246048;23;19993;-72
2023/07/09 10:18:22;;;;;;;16.27;11.27;;;31.60;35.60;;;;;;6219800;23;20003;-73
2023/07/09 10:21:33;;;;;;;13.07;9.35;;;31.70;35.40;;;;;;6247027;23;20044;-67
2023/07/09 10:24:27;;;;;;;13.18;8.98;;;31.80;35.40;;;;;;6247431;23;20035;-69
2023/07/09 10:27:19;;;;;;;16.02;10.23;;;31.80;34.20;;;;;;6219798;23;20003;-68
2023/07/09 10:30:00;;;;;;;10.32;6.93;;;31.90;33.70;;;;;;6220225;23;20362;-68
2023/07/09 10:33:09;;;;;;;6.72;6.03;;;32.00;32.50;;;;;;6247088;23;20000;-68
2023/07/09 10:35:56;;;;;;;14.40;10.20;;;32.10;30.80;;;;;;6214485;23;20050;-69
2023/07/09 10:38:57;;;;;;;11.30;7.97;;;32.10;31.40;;;;;;6217466;23;20007;-68
2023/07/09 10:41:29;;;;;;;16.15;5.88;;;32.20;30.70;;;;;;6243103;23;20026;-68
2023/07/09 10:44:14;;;;;;;8.77;5.13;;;32.30;29.00;;;;;;6244399;23;19996;-68
2023/07/09 10:46:54;;;;;;;9.27;7.38;;;32.40;29.40;;;;;;6244541;23;20416;-68
2023/07/09 10:49:37;;;;;;;12.25;5.85;;;32.50;29.10;;;;;;6244255;23;19989;-69
2023/07/09 10:52:29;;;;;;;9.65;5.60;;;32.50;28.30;;;;;;6244765;23;20106;-68
2023/07/09 10:55:09;;;;;;;7.32;5.20;;;32.60;29.50;;;;;;6244450;23;19996;-68
2023/07/09 10:57:58;;;;;;;8.88;4.88;;;32.70;28.80;;;;;;6244024;23;20004;-69
2023/07/09 11:00:36;;;;;;;8.02;5.30;;;32.80;29.10;;;;;;6194283;23;20011;-69
2023/07/09 11:03:39;;;;;;;7.22;4.78;;;32.80;28.40;;;;;;6244392;23;20012;-67
2023/07/09 11:06:22;;;;;;;11.13;7.68;;;32.90;28.60;;;;;;6217799;23;19999;-68
2023/07/09 11:09:00;;;;;;;17.20;13.17;;;33.00;27.60;;;;;;6244260;23;20131;-68
2023/07/09 11:11:42;;;;;;;6.68;5.38;;;33.10;27.70;;;;;;6244325;23;20219;-69
2023/07/09 11:14:40;;;;;;;8.35;5.57;;;33.10;26.80;;;;;;6244505;23;20000;-70
2023/07/09 11:17:22;;;;;;;5.32;4.22;;;33.20;27.20;;;;;;6205375;23;20071;-69
2023/07/09 11:20:00;;;;;;;9.50;4.60;;;33.30;26.50;;;;;;6244277;23;20038;-69
2023/07/09 11:22:40;;;;;;;7.45;4.60;;;33.30;26.00;;;;;;6244427;23;20004;-70
2023/07/09 11:25:10;;;;;;;10.45;4.05;;;33.40;25.50;;;;;;6217711;23;20008;-69
2023/07/09 11:27:50;;;;;;;5.50;4.20;;;33.50;25.80;;;;;;6245173;23;20071;-68
2023/07/09 11:30:26;;;;;;;7.55;5.68;;;33.50;26.10;;;;;;6218241;23;20007;-68
2023/07/09 11:33:03;;;;;;;5.78;4.50;;;33.60;25.60;;;;;;6244467;23;20004;-68
2023/07/09 11:35:56;;;;;;;10.10;4.63;;;33.60;25.30;;;;;;6244725;23;19992;-68
2023/07/09 11:38:48;;;;;;;9.17;4.13;;;33.70;25.20;;;;;;6217258;23;20011;-68
2023/07/09 11:41:39;;;;;;;9.27;7.80;;;33.70;25.00;;;;;;6217664;23;20079;-68
2023/07/09 11:44:50;;;;;;;9.77;7.70;;;33.80;25.30;;;;;;6245051;23;20107;-69
2023/07/09 11:47:35;;;;;;;6.50;5.20;;;33.90;25.30;;;;;;6244473;23;20063;-68
2023/07/09 11:50:27;;;;;;;6.53;4.00;;;34.00;24.00;;;;;;6217769;23;20000;-69
2023/07/09 11:52:55;;;;;;;5.00;3.92;;;34.10;23.70;;;;;;6213411;23;20318;-70
